Time;durP1;ratioP1;P1;durP2;ratioP2;P2;SDS_P1;SDS_P2;PMS_P1;PMS_P2;Temp;Humidity;BMP_temperature;BMP_pressure;BME280_temperature;BME280_humidity;BME280_pressure;Samples;Min_cycle;Max_cycle;Signal;HPM_P1;HPM_P2
2023/06/30 00:01:26;;;;;;;1.90;1.42;;;27.30;45.10;;;;;;4966707;28;20371;-63
2023/06/30 00:03:52;;;;;;;1.50;1.20;;;27.30;45.10;;;;;;4982907;28;20155;-63
2023/06/30 00:06:18;;;;;;;1.70;1.30;;;27.30;45.10;;;;;;4968733;28;20454;-63
2023/06/30 00:08:43;;;;;;;1.60;1.10;;;27.30;45.10;;;;;;4982925;28;20030;-64
2023/06/30 00:11:09;;;;;;;2.03;1.25;;;27.30;45.10;;;;;;4982600;28;20929;-64
2023/06/30 00:13:35;;;;;;;1.70;1.10;;;27.30;45.60;;;;;;4980494;28;20033;-64
2023/06/30 00:16:01;;;;;;;1.88;1.15;;;27.30;45.10;;;;;;4982139;28;20110;-63
2023/06/30 00:18:26;;;;;;;1.60;1.20;;;27.20;45.10;;;;;;4982167;28;20452;-64
2023/06/30 00:20:54;;;;;;;1.40;1.10;;;27.30;45.10;;;;;;4982334;28;20082;-63
2023/06/30 00:23:20;;;;;;;2.10;1.30;;;27.30;45.20;;;;;;4980864;28;20034;-64
2023/06/30 00:25:46;;;;;;;1.60;1.30;;;27.20;45.10;;;;;;4979252;28;20105;-64
2023/06/30 00:28:11;;;;;;;1.80;1.30;;;27.20;45.10;;;;;;4968211;28;20030;-63
2023/06/30 00:30:38;;;;;;;1.55;1.10;;;27.20;45.10;;;;;;4967046;28;20030;-63
2023/06/30 00:33:03;;;;;;;1.52;1.10;;;27.20;45.10;;;;;;4965189;28;20094;-63
2023/06/30 00:35:29;;;;;;;1.50;1.00;;;27.20;45.10;;;;;;4969830;28;20015;-64
2023/06/30 00:37:55;;;;;;;2.33;1.10;;;27.20;45.10;;;;;;4983710;28;20084;-64
2023/06/30 00:40:20;;;;;;;1.80;1.13;;;27.20;45.10;;;;;;4978741;28;20031;-64
2023/06/30 00:42:46;;;;;;;1.42;1.13;;;27.20;45.10;;;;;;4982590;28;20031;-63
2023/06/30 00:45:12;;;;;;;1.10;1.00;;;27.20;45.20;;;;;;4967887;28;20030;-64
2023/06/30 00:47:37;;;;;;;1.42;1.13;;;27.20;45.70;;;;;;4982254;28;20371;-64
2023/06/30 00:50:03;;;;;;;1.58;1.00;;;27.10;45.60;;;;;;4980810;28;20033;-64
2023/06/30 00:52:29;;;;;;;1.50;1.10;;;27.10;45.10;;;;;;4981058;28;20371;-65
2023/06/30 00:54:55;;;;;;;2.03;1.10;;;27.20;45.20;;;;;;4981635;28;20129;-63
2023/06/30 00:57:20;;;;;;;1.35;1.13;;;27.10;45.10;;;;;;4981232;28;20363;-64
2023/06/30 00:59:46;;;;;;;1.75;1.20;;;27.10;45.10;;;;;;4982981;28;20120;-64
2023/06/30 01:02:24;;;;;;;1.67;1.08;;;27.10;45.20;;;;;;4981241;28;20042;-64
2023/06/30 01:04:57;;;;;;;1.58;1.10;;;27.10;45.20;;;;;;4981846;28;20034;-64
2023/06/30 01:07:27;;;;;;;1.40;1.10;;;27.10;45.10;;;;;;4982072;28;20098;-63
2023/06/30 01:10:06;;;;;;;1.30;1.00;;;27.10;45.20;;;;;;4964928;28;20085;-64
2023/06/30 01:12:32;;;;;;;1.70;0.95;;;27.10;45.40;;;;;;4979496;28;20566;-64
2023/06/30 01:14:59;;;;;;;1.50;1.00;;;27.00;45.10;;;;;;4980778;28;20039;-63
2023/06/30 01:17:26;;;;;;;1.35;1.00;;;27.10;45.20;;;;;;4980706;28;20092;-64
2023/06/30 01:19:55;;;;;;;1.73;1.10;;;27.10;45.20;;;;;;4983323;28;20386;-63
2023/06/30 01:22:39;;;;;;;1.30;1.00;;;27.10;45.20;;;;;;4980867;28;20026;-64
2023/06/30 01:25:09;;;;;;;1.20;1.00;;;27.10;45.20;;;;;;4980917;28;20475;-63
2023/06/30 01:27:36;;;;;;;1.55;1.10;;;27.10;45.20;;;;;;4980149;28;20490;-63
2023/06/30 01:30:06;;;;;;;1.63;1.02;;;27.00;45.10;;;;;;4980166;28;20462;-64
2023/06/30 01:32:32;;;;;;;1.35;1.00;;;27.00;45.10;;;;;;4979399;28;20023;-64
2023/06/30 01:34:57;;;;;;;1.40;1.00;;;27.00;45.10;;;;;;4967524;28;20061;-63
2023/06/30 01:37:23;;;;;;;1.25;1.00;;;27.00;45.20;;;;;;4981053;28;20487;-63
2023/06/30 01:39:48;;;;;;;1.58;1.08;;;27.00;45.20;;;;;;4977384;28;20027;-63
2023/06/30 01:42:15;;;;;;;1.75;1.10;;;27.00;45.20;;;;;;4966382;28;20038;-63
2023/06/30 01:44:41;;;;;;;1.20;1.00;;;27.00;45.20;;;;;;4977474;28;20487;-63
2023/06/30 01:47:08;;;;;;;1.85;1.10;;;27.00;45.20;;;;;;4966580;28;20035;-63
2023/06/30 01:49:34;;;;;;;1.10;1.00;;;27.00;45.20;;;;;;4982602;28;20113;-63
2023/06/30 01:52:01;;;;;;;1.35;1.10;;;27.00;45.20;;;;;;4979472;28;20113;-64
2023/06/30 01:54:26;;;;;;;1.52;1.02;;;27.00;45.20;;;;;;4981228;28;20030;-64
2023/06/30 01:56:52;;;;;;;1.10;0.98;;;27.00;45.20;;;;;;4963410;28;20483;-63
2023/06/30 01:59:18;;;;;;;1.23;1.00;;;27.00;45.20;;;;;;4978121;28;20140;-63
2023/06/30 02:01:43;;;;;;;1.60;1.10;;;27.00;45.20;;;;;;4980019;28;20232;-64
2023/06/30 02:04:09;;;;;;;1.38;1.10;;;27.00;45.20;;;;;;4981036;28;20018;-64
2023/06/30 02:06:35;;;;;;;1.45;1.02;;;27.00;45.20;;;;;;4982428;28;20062;-63
2023/06/30 02:09:00;;;;;;;1.30;0.90;;;27.00;45.20;;;;;;4979286;28;20022;-63
2023/06/30 02:11:26;;;;;;;1.20;1.00;;;26.90;45.20;;;;;;4979556;28;20030;-64
2023/06/30 02:13:52;;;;;;;1.45;1.10;;;26.90;45.20;;;;;;4978284;28;20034;-63
2023/06/30 02:16:18;;;;;;;1.70;1.27;;;26.90;45.10;;;;;;4978329;28;20031;-64
2023/06/30 02:18:43;;;;;;;1.40;1.10;;;26.90;45.20;;;;;;4979964;28;20037;-64
2023/06/30 02:21:09;;;;;;;1.48;1.05;;;26.90;45.20;;;;;;4980980;28;20025;-63
2023/06/30 02:23:34;;;;;;;1.52;1.10;;;26.90;45.20;;;;;;4971305;28;20026;-64
2023/06/30 02:26:00;;;;;;;1.50;1.10;;;26.90;45.20;;;;;;4977576;28;20444;-64
2023/06/30 02:28:26;;;;;;;1.58;1.10;;;26.90;45.20;;;;;;4979622;28;20035;-63
2023/06/30 02:30:51;;;;;;;1.38;1.00;;;26.90;45.20;;;;;;4976193;28;20060;-64
2023/06/30 02:33:17;;;;;;;1.45;1.10;;;26.90;45.20;;;;;;4981095;28;20034;-64
2023/06/30 02:35:43;;;;;;;1.23;1.00;;;26.90;45.20;;;;;;4980528;28;20022;-64
2023/06/30 02:38:09;;;;;;;1.83;1.30;;;26.90;45.20;;;;;;4979521;28;20165;-64
2023/06/30 02:40:36;;;;;;;5.30;1.48;;;26.90;45.20;;;;;;4979236;28;20077;-63
2023/06/30 02:43:02;;;;;;;1.25;1.02;;;26.90;45.20;;;;;;4979805;28;20030;-64
2023/06/30 02:45:28;;;;;;;1.10;1.00;;;26.90;45.20;;;;;;4977689;28;20028;-64
2023/06/30 02:47:53;;;;;;;1.25;1.00;;;26.90;45.20;;;;;;4979360;28;20022;-64
2023/06/30 02:50:27;;;;;;;1.08;0.98;;;26.90;45.20;;;;;;4977969;28;20026;-64
2023/06/30 02:52:53;;;;;;;1.17;0.95;;;26.90;45.20;;;;;;4979448;28;20512;-63
2023/06/30 02:55:18;;;;;;;1.42;1.10;;;26.90;45.20;;;;;;4965112;28;20023;-63
2023/06/30 02:57:44;;;;;;;1.02;0.93;;;26.80;45.10;;;;;;4977822;28;20495;-64
2023/06/30 03:00:10;;;;;;;1.10;1.00;;;26.80;45.20;;;;;;4967100;28;20041;-63
2023/06/30 03:02:36;;;;;;;1.42;0.95;;;26.80;45.20;;;;;;4978295;28;20027;-64
2023/06/30 03:05:02;;;;;;;1.45;1.10;;;26.80;45.20;;;;;;4964334;28;20383;-63
2023/06/30 03:07:27;;;;;;;1.75;1.20;;;26.80;45.20;;;;;;4980403;28;20031;-63
2023/06/30 03:09:53;;;;;;;1.35;1.00;;;26.80;45.20;;;;;;4969093;28;20037;-64
2023/06/30 03:12:19;;;;;;;1.33;1.05;;;26.80;45.20;;;;;;4978146;28;20034;-64
2023/06/30 03:14:44;;;;;;;1.73;1.00;;;26.80;45.20;;;;;;4979384;28;20494;-64
2023/06/30 03:17:10;;;;;;;1.30;1.10;;;26.80;45.20;;;;;;4977688;28;20061;-63
2023/06/30 03:19:35;;;;;;;1.40;1.10;;;26.80;45.20;;;;;;4979975;28;20106;-64
2023/06/30 03:22:01;;;;;;;1.58;1.10;;;26.80;45.20;;;;;;4979048;28;20434;-64
2023/06/30 03:24:27;;;;;;;1.20;1.02;;;26.80;45.30;;;;;;4980535;28;20058;-64
2023/06/30 03:26:52;;;;;;;1.40;1.08;;;26.80;45.20;;;;;;4978791;28;20027;-63
2023/06/30 03:29:18;;;;;;;1.83;1.20;;;26.80;45.20;;;;;;4981246;28;20085;-63
2023/06/30 03:31:43;;;;;;;1.30;1.00;;;26.80;45.30;;;;;;4977810;28;20387;-68
2023/06/30 03:34:09;;;;;;;1.02;0.90;;;26.80;45.30;;;;;;4978441;28;20035;-68
2023/06/30 03:36:35;;;;;;;1.35;1.10;;;26.70;45.20;;;;;;4980819;28;20506;-68
2023/06/30 03:39:00;;;;;;;1.50;1.10;;;26.80;45.30;;;;;;4978571;28;20030;-68
2023/06/30 03:41:26;;;;;;;1.27;0.90;;;26.80;45.30;;;;;;4978181;28;20101;-68
2023/06/30 03:43:52;;;;;;;1.23;0.98;;;26.70;45.20;;;;;;4979265;28;20740;-68
2023/06/30 03:46:17;;;;;;;1.35;1.00;;;26.70;45.30;;;;;;4976294;28;20034;-68
2023/06/30 03:48:43;;;;;;;1.00;0.90;;;26.70;45.70;;;;;;4961676;28;20498;-68
2023/06/30 03:51:09;;;;;;;1.60;1.00;;;26.70;45.30;;;;;;4964685;28;20132;-68
2023/06/30 03:53:34;;;;;;;1.30;0.95;;;26.70;45.30;;;;;;4979316;28;20026;-68
2023/06/30 03:56:00;;;;;;;1.30;1.10;;;26.70;45.20;;;;;;4978912;28;20045;-67
2023/06/30 03:58:27;;;;;;;1.10;1.00;;;26.70;45.20;;;;;;4977602;28;20049;-68
2023/06/30 04:00:53;;;;;;;1.27;1.10;;;26.70;45.30;;;;;;4977607;28;20391;-68
2023/06/30 04:03:18;;;;;;;1.00;0.90;;;26.70;45.30;;;;;;4970881;28;20027;-68
2023/06/30 04:05:44;;;;;;;1.33;1.00;;;26.70;45.30;;;;;;4963920;28;20023;-68
2023/06/30 04:08:10;;;;;;;1.27;0.80;;;26.70;45.30;;;;;;4970831;28;20398;-68
2023/06/30 04:10:35;;;;;;;1.27;1.00;;;26.70;45.30;;;;;;4976934;28;20633;-68
2023/06/30 04:13:04;;;;;;;1.38;1.00;;;26.70;45.30;;;;;;4976650;28;20019;-68
2023/06/30 04:15:30;;;;;;;;;;;26.70;45.40;;;;;;4976698;28;20019;-68
2023/06/30 04:17:55;;;;;;;1.65;1.00;;;26.70;45.40;;;;;;4977686;28;19920;-68
2023/06/30 04:20:21;;;;;;;1.10;0.93;;;26.70;45.40;;;;;;4977550;28;20046;-68
2023/06/30 04:22:47;;;;;;;1.20;1.10;;;26.70;45.40;;;;;;4985849;28;20032;-68
2023/06/30 04:25:13;;;;;;;1.10;1.00;;;26.70;45.60;;;;;;4982945;28;20035;-68
2023/06/30 04:27:39;;;;;;;1.77;1.20;;;26.70;45.70;;;;;;4966574;28;20098;-68
2023/06/30 04:30:08;;;;;;;1.30;1.10;;;26.60;45.60;;;;;;4980862;28;20511;-68
2023/06/30 04:32:33;;;;;;;1.50;1.10;;;26.60;45.60;;;;;;4967244;28;20467;-68
2023/06/30 04:34:59;;;;;;;1.13;0.98;;;26.60;45.60;;;;;;4981314;28;20066;-68
2023/06/30 04:37:29;;;;;;;1.25;0.93;;;26.60;45.60;;;;;;4983918;28;20105;-68
2023/06/30 04:39:58;;;;;;;1.13;1.00;;;26.60;45.60;;;;;;4967166;28;20038;-68
2023/06/30 04:42:27;;;;;;;1.52;1.13;;;26.60;45.60;;;;;;4967223;28;20093;-68
2023/06/30 04:44:52;;;;;;;1.13;1.00;;;26.60;45.60;;;;;;4980577;28;20027;-68
2023/06/30 04:47:18;;;;;;;1.17;1.00;;;26.60;45.60;;;;;;4980624;28;20104;-68
2023/06/30 04:49:44;;;;;;;1.30;1.10;;;26.60;45.60;;;;;;4980933;28;20041;-68
2023/06/30 04:52:10;;;;;;;1.13;1.00;;;26.60;45.60;;;;;;4983293;28;20471;-68
2023/06/30 04:54:37;;;;;;;1.40;1.00;;;26.60;45.70;;;;;;4981068;28;20061;-68
2023/06/30 04:57:02;;;;;;;1.17;0.90;;;26.60;45.60;;;;;;4972286;28;20044;-68
2023/06/30 04:59:28;;;;;;;1.25;1.00;;;26.60;45.70;;;;;;4961254;28;20343;-68
2023/06/30 05:01:54;;;;;;;1.70;1.25;;;26.60;45.70;;;;;;4979915;28;20467;-68
2023/06/30 05:04:19;;;;;;;1.20;1.00;;;26.60;45.70;;;;;;4981275;28;20355;-68
2023/06/30 05:06:45;;;;;;;1.98;1.15;;;26.60;45.70;;;;;;4982901;28;20034;-68
2023/06/30 05:09:11;;;;;;;1.58;1.20;;;26.60;45.70;;;;;;4965729;28;20094;-68
2023/06/30 05:11:36;;;;;;;1.48;1.23;;;26.60;45.70;;;;;;4983481;28;20031;-68
2023/06/30 05:14:02;;;;;;;1.63;1.17;;;26.60;45.80;;;;;;4981010;28;20534;-68
2023/06/30 05:16:28;;;;;;;1.40;1.20;;;26.60;45.80;;;;;;4976996;28;20035;-68
2023/06/30 05:18:53;;;;;;;1.40;1.05;;;26.60;45.80;;;;;;4979093;28;20038;-68
2023/06/30 05:21:19;;;;;;;1.60;1.00;;;26.60;45.80;;;;;;4983205;28;20030;-68
2023/06/30 05:23:44;;;;;;;1.25;1.10;;;26.60;45.80;;;;;;4979969;28;20109;-68
2023/06/30 05:26:10;;;;;;;1.25;1.00;;;26.60;45.80;;;;;;4980955;28;20026;-68
2023/06/30 05:28:36;;;;;;;1.23;1.00;;;26.50;45.80;;;;;;4980142;28;20102;-67
2023/06/30 05:31:03;;;;;;;1.60;1.10;;;26.60;45.90;;;;;;4980032;28;20668;-67
2023/06/30 05:33:28;;;;;;;2.25;1.02;;;26.50;45.90;;;;;;4977097;28;20379;-68
2023/06/30 05:35:54;;;;;;;1.48;1.10;;;26.60;46.00;;;;;;4980458;28;20034;-68
2023/06/30 05:38:19;;;;;;;1.00;0.90;;;26.50;45.90;;;;;;4981762;28;20470;-68
2023/06/30 05:40:45;;;;;;;1.67;1.02;;;26.60;46.00;;;;;;4979700;28;20022;-68
2023/06/30 05:43:11;;;;;;;1.75;1.10;;;26.50;45.90;;;;;;4981504;28;20471;-68
2023/06/30 05:45:37;;;;;;;1.65;1.20;;;26.50;46.00;;;;;;4979627;28;20129;-68
2023/06/30 05:48:02;;;;;;;2.92;1.48;;;26.60;46.10;;;;;;4980309;28;20046;-68
2023/06/30 05:50:28;;;;;;;2.05;1.30;;;26.60;46.10;;;;;;4980545;28;20066;-68
2023/06/30 05:52:54;;;;;;;1.55;1.10;;;26.50;46.00;;;;;;4983723;28;20378;-67
2023/06/30 05:55:20;;;;;;;1.77;1.27;;;26.50;46.00;;;;;;4981489;28;20054;-67
2023/06/30 05:57:46;;;;;;;2.10;1.20;;;26.50;46.00;;;;;;4965942;28;20031;-68
2023/06/30 06:00:12;;;;;;;1.75;1.10;;;26.50;46.00;;;;;;4979340;28;20087;-68
2023/06/30 06:02:38;;;;;;;1.55;1.10;;;26.50;46.00;;;;;;4978551;28;20117;-68
2023/06/30 06:05:04;;;;;;;1.52;1.05;;;26.50;46.00;;;;;;4980282;28;20033;-68
2023/06/30 06:07:29;;;;;;;2.10;1.30;;;26.50;46.00;;;;;;4981919;28;20029;-68
2023/06/30 06:09:55;;;;;;;1.52;1.00;;;26.50;46.00;;;;;;4970271;28;20536;-68
2023/06/30 06:12:21;;;;;;;2.20;1.30;;;26.50;46.00;;;;;;4979269;28;20049;-68
2023/06/30 06:14:46;;;;;;;1.60;1.20;;;26.50;46.00;;;;;;4982499;28;20114;-68
2023/06/30 06:17:12;;;;;;;1.48;1.15;;;26.50;46.00;;;;;;4980789;28;20030;-68
2023/06/30 06:19:37;;;;;;;2.22;1.30;;;26.50;46.00;;;;;;4979484;28;20058;-68
2023/06/30 06:22:03;;;;;;;1.38;1.10;;;26.50;46.00;;;;;;4965889;28;20031;-68
2023/06/30 06:24:29;;;;;;;2.20;1.40;;;26.50;46.00;;;;;;4980895;28;20055;-67
2023/06/30 06:26:54;;;;;;;1.83;1.20;;;26.50;46.00;;;;;;4981099;28;20120;-67
2023/06/30 06:29:22;;;;;;;1.65;1.10;;;26.50;46.00;;;;;;4979422;28;20089;-68
2023/06/30 06:31:51;;;;;;;2.25;1.13;;;26.50;46.00;;;;;;4979015;28;20105;-68
2023/06/30 06:34:20;;;;;;;1.88;1.08;;;26.50;46.10;;;;;;4981108;28;20037;-68
2023/06/30 06:36:46;;;;;;;1.55;1.20;;;26.50;46.00;;;;;;4960564;28;20466;-67
2023/06/30 06:39:12;;;;;;;1.67;1.20;;;26.50;46.00;;;;;;4981550;28;20029;-68
2023/06/30 06:41:38;;;;;;;1.80;1.30;;;26.50;46.00;;;;;;4978739;28;20026;-68
2023/06/30 06:44:04;;;;;;;1.75;1.23;;;26.50;46.00;;;;;;4977990;28;20027;-68
2023/06/30 06:46:30;;;;;;;1.63;1.20;;;26.50;46.00;;;;;;4960562;28;20108;-68
2023/06/30 06:48:56;;;;;;;1.60;1.30;;;26.50;46.00;;;;;;4981591;28;20134;-68
2023/06/30 06:51:22;;;;;;;2.10;1.30;;;26.50;46.00;;;;;;4980281;28;20125;-67
2023/06/30 06:53:48;;;;;;;1.48;1.13;;;26.50;46.00;;;;;;4979306;28;20054;-68
2023/06/30 06:56:13;;;;;;;1.85;1.30;;;26.40;46.00;;;;;;4981474;28;20058;-68
2023/06/30 06:58:39;;;;;;;2.22;1.50;;;26.40;46.00;;;;;;4981044;28;20117;-68
2023/06/30 07:01:05;;;;;;;1.75;1.20;;;26.40;46.00;;;;;;4978275;28;20031;-68
2023/06/30 07:03:31;;;;;;;3.03;1.48;;;26.40;46.00;;;;;;4976948;28;20046;-68
2023/06/30 07:05:57;;;;;;;2.35;1.17;;;26.40;46.00;;;;;;4976827;28;20027;-68
2023/06/30 07:08:23;;;;;;;2.55;1.30;;;26.40;46.00;;;;;;4964440;28;20018;-68
2023/06/30 07:10:50;;;;;;;2.20;1.25;;;26.40;46.00;;;;;;4979090;28;20438;-68
2023/06/30 07:13:17;;;;;;;1.65;1.17;;;26.40;46.00;;;;;;4979902;28;20471;-68
2023/06/30 07:15:45;;;;;;;1.92;1.10;;;26.40;46.00;;;;;;4977961;28;20038;-67
2023/06/30 07:18:11;;;;;;;2.13;1.30;;;26.40;46.00;;;;;;4961137;28;20034;-68
2023/06/30 07:20:36;;;;;;;1.83;1.20;;;26.40;46.00;;;;;;4980541;28;20472;-68
2023/06/30 07:23:02;;;;;;;2.00;1.30;;;26.40;46.00;;;;;;4979709;28;20088;-68
2023/06/30 07:25:28;;;;;;;2.17;1.30;;;26.40;46.00;;;;;;4979704;28;20043;-68
2023/06/30 07:27:56;;;;;;;2.15;1.40;;;26.40;46.00;;;;;;4977815;28;20039;-68
2023/06/30 07:30:24;;;;;;;2.20;1.38;;;26.40;46.00;;;;;;4970438;28;20081;-68
2023/06/30 07:32:51;;;;;;;2.08;1.40;;;26.40;45.90;;;;;;4975991;28;20092;-68
2023/06/30 07:35:17;;;;;;;2.40;1.30;;;26.40;46.00;;;;;;4979549;28;20894;-68
2023/06/30 07:37:44;;;;;;;2.20;1.30;;;26.40;45.90;;;;;;4979008;28;20537;-68
2023/06/30 07:40:10;;;;;;;1.98;1.30;;;26.40;46.00;;;;;;4979846;28;20038;-68
2023/06/30 07:42:38;;;;;;;2.42;1.48;;;26.40;46.00;;;;;;4959845;28;20034;-68
2023/06/30 07:45:09;;;;;;;2.28;1.40;;;26.40;46.00;;;;;;4980007;28;20041;-68
2023/06/30 07:47:35;;;;;;;1.67;1.30;;;26.40;46.00;;;;;;4977762;28;20026;-68
2023/06/30 07:50:02;;;;;;;2.25;1.20;;;26.40;46.00;;;;;;4979780;28;20625;-68
2023/06/30 07:52:27;;;;;;;1.67;1.27;;;26.40;46.00;;;;;;4978362;28;20119;-68
2023/06/30 07:54:55;;;;;;;1.90;1.20;;;26.40;46.00;;;;;;4964317;28;20130;-68
2023/06/30 07:57:24;;;;;;;2.55;1.35;;;26.40;46.00;;;;;;4980480;28;20117;-67
2023/06/30 07:59:50;;;;;;;1.48;1.23;;;26.40;46.00;;;;;;4983834;28;20210;-68
2023/06/30 08:02:17;;;;;;;1.98;1.27;;;26.40;46.00;;;;;;4982116;28;20521;-68
2023/06/30 08:04:43;;;;;;;2.38;1.40;;;26.40;46.00;;;;;;4982697;28;20098;-68
2023/06/30 08:07:08;;;;;;;1.70;1.13;;;26.40;46.00;;;;;;4982498;28;20198;-67
2023/06/30 08:09:34;;;;;;;1.90;1.33;;;26.30;45.90;;;;;;4967267;28;20038;-67
2023/06/30 08:12:00;;;;;;;1.95;1.35;;;26.40;46.00;;;;;;4982448;28;20041;-67
2023/06/30 08:14:25;;;;;;;1.88;1.40;;;26.40;46.00;;;;;;4983488;28;20128;-68
2023/06/30 08:16:51;;;;;;;1.65;1.25;;;26.30;45.90;;;;;;4981753;28;20343;-68
2023/06/30 08:19:16;;;;;;;1.90;1.30;;;26.40;46.00;;;;;;4981333;28;20413;-68
2023/06/30 08:21:42;;;;;;;1.92;1.33;;;26.40;46.00;;;;;;4981286;28;20037;-68
2023/06/30 08:24:08;;;;;;;1.67;1.20;;;26.30;45.90;;;;;;4983373;28;20037;-68
2023/06/30 08:26:33;;;;;;;2.00;1.30;;;26.30;45.90;;;;;;4980726;28;20034;-68
2023/06/30 08:28:59;;;;;;;1.70;1.20;;;26.30;45.90;;;;;;4982613;28;20066;-68
2023/06/30 08:31:24;;;;;;;1.67;1.20;;;26.30;45.90;;;;;;4981537;28;20056;-68
2023/06/30 08:33:50;;;;;;;2.17;1.40;;;26.30;45.90;;;;;;4971787;28;20022;-67
2023/06/30 08:36:16;;;;;;;2.10;1.25;;;26.30;45.90;;;;;;4982342;28;20038;-68
2023/06/30 08:38:41;;;;;;;1.63;1.20;;;26.30;45.90;;;;;;4983077;28;20026;-68
2023/06/30 08:41:08;;;;;;;2.17;1.50;;;26.30;45.90;;;;;;4983846;28;20102;-68
2023/06/30 08:43:34;;;;;;;1.90;1.33;;;26.30;45.90;;;;;;4980546;28;20026;-68
2023/06/30 08:46:01;;;;;;;2.28;1.67;;;26.30;45.90;;;;;;4971089;28;20051;-68
2023/06/30 08:48:29;;;;;;;2.88;1.80;;;26.30;45.90;;;;;;4980624;28;20458;-67
2023/06/30 08:50:55;;;;;;;2.20;1.35;;;26.30;45.90;;;;;;4964589;28;20321;-68
2023/06/30 08:53:23;;;;;;;2.20;1.50;;;26.30;45.90;;;;;;4964218;28;20077;-67
2023/06/30 08:55:50;;;;;;;1.90;1.35;;;26.30;45.90;;;;;;4981156;28;20482;-68
2023/06/30 08:58:16;;;;;;;1.92;1.33;;;26.30;46.00;;;;;;4981669;28;20025;-68
2023/06/30 09:00:42;;;;;;;1.98;1.40;;;26.30;45.90;;;;;;4980780;28;20030;-68
2023/06/30 09:03:08;;;;;;;2.67;1.55;;;26.30;45.90;;;;;;4980212;28;20022;-68
2023/06/30 09:05:36;;;;;;;2.83;1.50;;;26.30;46.00;;;;;;4982291;28;20058;-68
2023/06/30 09:08:10;;;;;;;1.70;1.33;;;26.30;46.00;;;;;;4962493;28;20478;-68
2023/06/30 09:10:37;;;;;;;2.33;1.40;;;26.30;45.90;;;;;;4972293;28;20430;-68
2023/06/30 09:13:04;;;;;;;2.30;1.50;;;26.30;45.90;;;;;;4979993;28;20018;-68
2023/06/30 09:15:31;;;;;;;2.05;1.40;;;26.30;46.00;;;;;;4981843;28;20541;-68
2023/06/30 09:17:57;;;;;;;2.22;1.50;;;26.30;45.90;;;;;;4979836;28;20348;-67
2023/06/30 09:20:22;;;;;;;2.42;1.70;;;26.30;46.00;;;;;;4980678;28;20037;-68
2023/06/30 09:22:48;;;;;;;2.10;1.65;;;26.30;46.00;;;;;;4972450;28;20037;-68
2023/06/30 09:25:26;;;;;;;2.15;1.55;;;26.30;46.00;;;;;;4982794;28;20387;-67
2023/06/30 09:27:52;;;;;;;2.38;1.80;;;26.30;46.00;;;;;;4979427;28;20067;-68
2023/06/30 09:30:18;;;;;;;2.35;1.60;;;26.30;46.00;;;;;;4969754;28;20483;-68
2023/06/30 09:32:43;;;;;;;2.53;1.80;;;26.30;46.00;;;;;;4980752;28;20039;-68
2023/06/30 09:35:14;;;;;;;2.83;1.95;;;26.30;46.10;;;;;;4971266;28;20030;-67
2023/06/30 09:37:44;;;;;;;2.45;1.60;;;26.30;46.00;;;;;;4983303;28;20054;-68
2023/06/30 09:40:14;;;;;;;2.47;1.65;;;26.30;46.00;;;;;;4980197;28;20022;-68
2023/06/30 09:42:42;;;;;;;3.25;1.80;;;26.30;46.10;;;;;;4980059;28;20026;-68
2023/06/30 09:45:08;;;;;;;2.38;1.67;;;26.30;46.00;;;;;;4981396;28;20033;-68
2023/06/30 09:47:34;;;;;;;2.65;1.80;;;26.30;46.10;;;;;;4980627;28;20030;-68
2023/06/30 09:50:00;;;;;;;2.42;1.80;;;26.30;46.00;;;;;;4976531;28;20154;-68
2023/06/30 09:52:25;;;;;;;2.78;1.60;;;26.30;46.10;;;;;;4981333;28;20133;-68
2023/06/30 09:54:51;;;;;;;2.58;1.88;;;26.30;46.10;;;;;;4965285;28;20045;-68
2023/06/30 09:57:17;;;;;;;2.50;1.80;;;26.30;46.10;;;;;;4978373;28;20035;-68
2023/06/30 09:59:44;;;;;;;2.95;1.65;;;26.30;46.10;;;;;;4979579;28;20045;-68
2023/06/30 10:02:12;;;;;;;2.80;1.80;;;26.30;46.20;;;;;;4970262;28;20065;-68
2023/06/30 10:04:38;;;;;;;2.80;1.90;;;26.30;46.20;;;;;;4979369;28;20363;-68
2023/06/30 10:07:03;;;;;;;2.70;2.00;;;26.30;46.20;;;;;;4980178;28;20034;-68
2023/06/30 10:09:32;;;;;;;2.72;1.85;;;26.30;46.20;;;;;;4981878;28;20538;-67
2023/06/30 10:11:58;;;;;;;2.70;1.83;;;26.30;46.60;;;;;;4975092;28;20374;-67
2023/06/30 10:14:28;;;;;;;2.55;1.73;;;26.30;46.20;;;;;;4977163;28;20026;-67
2023/06/30 10:16:56;;;;;;;2.90;2.00;;;26.30;46.20;;;;;;4968893;28;20022;-67
2023/06/30 10:19:23;;;;;;;2.65;1.92;;;26.30;46.20;;;;;;4977252;28;20050;-67
2023/06/30 10:21:49;;;;;;;2.70;1.90;;;26.30;46.20;;;;;;4980333;28;20432;-68
2023/06/30 10:24:19;;;;;;;2.60;2.05;;;26.30;46.20;;;;;;4980314;28;20134;-68
2023/06/30 10:26:47;;;;;;;2.97;2.00;;;26.30;46.80;;;;;;4980390;28;20023;-68
2023/06/30 10:29:13;;;;;;;3.35;2.20;;;26.30;46.30;;;;;;4980721;28;20109;-68
2023/06/30 10:31:39;;;;;;;3.13;2.17;;;26.20;46.30;;;;;;4970521;28;20462;-68
2023/06/30 10:34:05;;;;;;;2.83;2.00;;;26.20;46.30;;;;;;4977641;28;20043;-68
2023/06/30 10:36:32;;;;;;;3.15;2.20;;;26.20;46.20;;;;;;4970393;28;20102;-68
2023/06/30 10:38:59;;;;;;;3.08;2.10;;;26.30;46.30;;;;;;4980394;28;20041;-68
2023/06/30 10:41:25;;;;;;;3.00;2.15;;;26.20;46.30;;;;;;4966595;28;20018;-68
2023/06/30 10:44:09;;;;;;;3.00;2.00;;;26.20;46.30;;;;;;4977095;28;20075;-68
2023/06/30 10:46:52;;;;;;;3.03;2.20;;;26.20;46.30;;;;;;4978576;28;20101;-68
2023/06/30 10:49:32;;;;;;;3.67;2.38;;;26.20;46.40;;;;;;4977479;28;20395;-68
2023/06/30 10:52:03;;;;;;;3.22;2.20;;;26.30;46.50;;;;;;4976963;28;20035;-67
2023/06/30 10:54:37;;;;;;;2.88;2.13;;;26.20;46.40;;;;;;4981370;28;20038;-68
2023/06/30 10:57:09;;;;;;;2.78;2.03;;;26.20;46.40;;;;;;4979152;28;20030;-68
2023/06/30 10:59:40;;;;;;;3.35;2.22;;;26.30;46.50;;;;;;4969702;28;20097;-68
2023/06/30 11:02:15;;;;;;;3.63;2.30;;;26.20;46.50;;;;;;4978451;28;20458;-68
2023/06/30 11:04:42;;;;;;;3.20;2.40;;;26.20;46.50;;;;;;4976870;28;20551;-68
2023/06/30 11:07:10;;;;;;;3.17;2.40;;;26.30;46.60;;;;;;4978242;28;20026;-68
2023/06/30 11:09:47;;;;;;;3.05;2.28;;;26.20;46.50;;;;;;4979606;28;20030;-68
2023/06/30 11:12:20;;;;;;;3.58;2.53;;;26.30;46.70;;;;;;4978768;28;20583;-68
2023/06/30 11:15:03;;;;;;;3.53;2.50;;;26.30;46.60;;;;;;4980408;28;20027;-68
2023/06/30 11:17:52;;;;;;;3.20;2.35;;;26.30;46.80;;;;;;4979158;28;20031;-68
2023/06/30 11:20:18;;;;;;;3.80;2.50;;;26.30;46.80;;;;;;4976368;28;20101;-68
2023/06/30 11:23:17;;;;;;;3.15;2.40;;;26.20;46.70;;;;;;4980793;28;20094;-68
2023/06/30 11:25:43;;;;;;;3.45;2.58;;;26.20;46.80;;;;;;4980911;28;20450;-68
2023/06/30 11:28:11;;;;;;;3.72;2.70;;;26.20;46.70;;;;;;4980309;28;20086;-68
2023/06/30 11:30:41;;;;;;;3.53;2.53;;;26.20;46.70;;;;;;4979752;28;20050;-68
2023/06/30 11:33:07;;;;;;;3.28;2.42;;;26.20;46.80;;;;;;4965857;28;20038;-67
2023/06/30 11:35:36;;;;;;;3.40;2.50;;;26.20;46.80;;;;;;4982218;28;20026;-69
2023/06/30 11:38:02;;;;;;;3.30;2.53;;;26.20;46.70;;;;;;4982288;28;20442;-69
2023/06/30 11:40:28;;;;;;;3.90;2.40;;;26.20;46.70;;;;;;4982410;28;20034;-69
2023/06/30 11:42:54;;;;;;;3.55;2.50;;;26.20;46.70;;;;;;4982352;28;20050;-69
2023/06/30 11:45:27;;;;;;;2.92;2.22;;;26.20;46.80;;;;;;4966919;28;20158;-69
2023/06/30 11:47:54;;;;;;;3.05;2.42;;;26.20;46.80;;;;;;4983019;28;20431;-69
2023/06/30 11:50:20;;;;;;;3.47;2.72;;;26.20;46.80;;;;;;4965521;28;20475;-69
2023/06/30 11:52:51;;;;;;;3.45;2.65;;;26.20;46.80;;;;;;4964860;28;20037;-69
2023/06/30 11:55:17;;;;;;;2.92;2.30;;;26.20;46.80;;;;;;4966133;28;20027;-69
2023/06/30 11:57:46;;;;;;;4.28;3.03;;;26.20;46.80;;;;;;4968887;28;20525;-69
2023/06/30 12:00:14;;;;;;;3.20;2.47;;;26.20;46.80;;;;;;4965853;28;20504;-69
2023/06/30 12:02:48;;;;;;;3.17;2.45;;;26.20;46.70;;;;;;4984462;28;20073;-70
2023/06/30 12:05:21;;;;;;;3.50;2.67;;;26.20;46.70;;;;;;4961986;28;20031;-69
2023/06/30 12:07:49;;;;;;;3.28;2.58;;;26.20;46.70;;;;;;4981514;28;20029;-69
2023/06/30 12:10:15;;;;;;;3.50;2.45;;;26.20;46.70;;;;;;4972160;28;20036;-69
2023/06/30 12:12:41;;;;;;;4.30;2.60;;;26.20;46.70;;;;;;4982514;28;20664;-70
2023/06/30 12:15:12;;;;;;;4.32;3.00;;;26.20;46.80;;;;;;4981217;28;20046;-69
2023/06/30 12:17:44;;;;;;;3.60;2.58;;;26.20;46.90;;;;;;4980606;28;20045;-69
2023/06/30 12:20:11;;;;;;;3.75;2.90;;;26.20;46.90;;;;;;4980305;28;20061;-70
2023/06/30 12:22:41;;;;;;;4.28;3.00;;;26.20;46.90;;;;;;4966209;28;20558;-69
2023/06/30 12:25:11;;;;;;;4.03;3.03;;;26.20;47.00;;;;;;4967988;28;20030;-69
2023/06/30 12:27:43;;;;;;;3.80;3.05;;;26.20;46.90;;;;;;4983360;28;20034;-69
2023/06/30 12:30:18;;;;;;;3.65;2.72;;;26.20;46.80;;;;;;4981130;28;20114;-69
2023/06/30 12:32:45;;;;;;;3.75;3.00;;;26.20;46.90;;;;;;4965548;28;20030;-69
2023/06/30 12:35:12;;;;;;;4.22;3.15;;;26.20;46.90;;;;;;4981580;28;20111;-69
2023/06/30 12:37:38;;;;;;;3.50;2.85;;;26.20;46.90;;;;;;4982567;28;20109;-69
2023/06/30 12:40:08;;;;;;;4.20;3.28;;;26.20;46.90;;;;;;4965038;28;20121;-69
2023/06/30 12:42:34;;;;;;;3.97;2.90;;;26.20;46.90;;;;;;4977112;28;20113;-69
2023/06/30 12:44:59;;;;;;;4.32;3.17;;;26.20;46.90;;;;;;4981372;28;20450;-69
2023/06/30 12:47:25;;;;;;;3.78;2.80;;;26.20;46.80;;;;;;4979974;28;20084;-69